Main page
METAR-TAF:

METAR-TAF

Airports :

Tuzla International Airport

Tuzla, Bosnia and Herzegovina

latitude: 44-33N, longitude: 018-42E, elevation: 306 m

Current weather observation

The report was made 34 minutes ago, at 08:30 UTC
Wind 2 kt from variable directions
Temperature 22°C
Humidity 60%
Pressure 1017 hPa
Visibility 10 km or more
no clouds below 1500 m and no cumulonimbus

METAR: LQTZ 210830Z VRB02KT CAVOK 22/14 Q1017

Time: 11:04 (09:04 UTC)

Forecast

The report was made 4 hours and 4 minutes ago, at 05:00 UTC
Forecast valid from 21 at 06 UTC to 22 at 06 UTC
Wind 2 kt from variable directions
Visibility 10 km or more
no clouds below 1500 m and no cumulonimbus
Temporary
from 21 at 06 UTC to 21 at 08 UTC
Visibility: 1200 m
Broken clouds at a height of 300 ft
mist

TAF: LQTZ 210500Z 2106/2206 VRB02KT CAVOK TX29/2113Z TN13/2106Z TEMPO 2106/2108 1200 BR BKN003

Weather observations and forecasts of more than 4000 airports (METAR and TAF reports).

The available stations are represented by yellow and red dots on the map.

Hover mouse over dot to see the name of the station.

Then click to see weather observations and forecasts.

To change the map : click on the green buttons with a black cross to zoom in, on the green button with a dash to zoom out, or on the green arrows for adjacent maps.


METAR-TAF: